sensor_id;sensor_type;location;lat;lon;timestamp;pressure;altitude;pressure_sealevel;temperature;humidity
47154;BME280;32907;41.412;2.164;2023-04-26T00:02:08;100524.13;;;22.48;48.24
47154;BME280;32907;41.412;2.164;2023-04-26T00:04:38;100453.16;;;22.07;48.64
47154;BME280;32907;41.412;2.164;2023-04-26T00:07:06;100479.03;;;22.23;48.48
47154;BME280;32907;41.412;2.164;2023-04-26T00:09:34;100502.28;;;22.34;47.94
47154;BME280;32907;41.412;2.164;2023-04-26T00:12:02;100497.13;;;22.33;47.83
47154;BME280;32907;41.412;2.164;2023-04-26T00:14:30;100527.81;;;22.52;48.24
47154;BME280;32907;41.412;2.164;2023-04-26T00:16:58;100527.03;;;22.52;47.79
47154;BME280;32907;41.412;2.164;2023-04-26T00:19:26;100507.13;;;22.38;47.87
47154;BME280;32907;41.412;2.164;2023-04-26T00:21:54;100520.25;;;22.49;47.83
47154;BME280;32907;41.412;2.164;2023-04-26T00:24:22;100519.88;;;22.42;48.09
47154;BME280;32907;41.412;2.164;2023-04-26T00:26:53;100481.56;;;22.20;48.17
47154;BME280;32907;41.412;2.164;2023-04-26T00:29:21;100525.72;;;22.49;47.76
47154;BME280;32907;41.412;2.164;2023-04-26T00:31:50;100514.91;;;22.44;48.04
47154;BME280;32907;41.412;2.164;2023-04-26T00:34:18;100511.66;;;22.42;48.17
47154;BME280;32907;41.412;2.164;2023-04-26T00:36:46;100509.84;;;22.38;48.19
47154;BME280;32907;41.412;2.164;2023-04-26T00:39:13;100500.34;;;22.35;47.86
47154;BME280;32907;41.412;2.164;2023-04-26T00:41:41;100505.00;;;22.34;47.98
47154;BME280;32907;41.412;2.164;2023-04-26T00:44:09;100487.31;;;22.32;48.00
47154;BME280;32907;41.412;2.164;2023-04-26T00:46:37;100509.75;;;22.43;47.92
47154;BME280;32907;41.412;2.164;2023-04-26T00:49:05;100477.13;;;22.24;47.71
47154;BME280;32907;41.412;2.164;2023-04-26T00:51:34;100485.41;;;22.32;47.34
47154;BME280;32907;41.412;2.164;2023-04-26T00:54:02;100516.00;;;22.43;47.90
47154;BME280;32907;41.412;2.164;2023-04-26T00:56:31;100514.91;;;22.44;47.93
47154;BME280;32907;41.412;2.164;2023-04-26T00:58:59;100486.63;;;22.26;47.65
47154;BME280;32907;41.412;2.164;2023-04-26T01:01:28;100518.75;;;22.43;47.75
47154;BME280;32907;41.412;2.164;2023-04-26T01:03:57;100485.81;;;22.26;47.73
47154;BME280;32907;41.412;2.164;2023-04-26T01:06:28;100518.75;;;22.43;47.90
47154;BME280;32907;41.412;2.164;2023-04-26T01:09:02;100482.28;;;22.25;47.92
47154;BME280;32907;41.412;2.164;2023-04-26T01:11:31;100491.16;;;22.31;47.74
47154;BME280;32907;41.412;2.164;2023-04-26T01:14:03;100497.31;;;22.37;47.77
47154;BME280;32907;41.412;2.164;2023-04-26T01:16:32;100506.03;;;22.39;47.75
47154;BME280;32907;41.412;2.164;2023-04-26T01:19:08;100492.16;;;22.35;47.68
47154;BME280;32907;41.412;2.164;2023-04-26T01:21:39;100504.78;;;22.45;48.19
47154;BME280;32907;41.412;2.164;2023-04-26T01:24:11;100516.50;;;22.45;47.98
47154;BME280;32907;41.412;2.164;2023-04-26T01:26:40;100507.63;;;22.40;47.71
47154;BME280;32907;41.412;2.164;2023-04-26T01:29:19;100514.41;;;22.42;48.17
47154;BME280;32907;41.412;2.164;2023-04-26T01:31:48;100437.69;;;22.02;48.03
47154;BME280;32907;41.412;2.164;2023-04-26T01:34:16;100508.44;;;22.40;47.82
47154;BME280;32907;41.412;2.164;2023-04-26T01:36:45;100479.22;;;22.27;48.19
47154;BME280;32907;41.412;2.164;2023-04-26T01:39:13;100463.56;;;22.19;48.36
47154;BME280;32907;41.412;2.164;2023-04-26T01:41:42;100497.22;;;22.42;48.18
47154;BME280;32907;41.412;2.164;2023-04-26T01:44:10;100492.97;;;22.36;47.95
47154;BME280;32907;41.412;2.164;2023-04-26T01:46:38;100465.19;;;22.20;47.99
47154;BME280;32907;41.412;2.164;2023-04-26T01:49:06;100510.56;;;22.43;48.00
47154;BME280;32907;41.412;2.164;2023-04-26T01:51:34;100478.09;;;22.28;47.76
47154;BME280;32907;41.412;2.164;2023-04-26T01:54:02;100508.94;;;22.42;47.93
47154;BME280;32907;41.412;2.164;2023-04-26T01:56:31;100485.50;;;22.27;47.93
47154;BME280;32907;41.412;2.164;2023-04-26T01:59:00;100479.53;;;22.25;48.12
47154;BME280;32907;41.412;2.164;2023-04-26T02:01:29;100472.78;;;22.23;48.08
47154;BME280;32907;41.412;2.164;2023-04-26T02:03:57;100487.41;;;22.41;47.94
47154;BME280;32907;41.412;2.164;2023-04-26T02:06:26;100443.88;;;22.08;48.04
47154;BME280;32907;41.412;2.164;2023-04-26T02:08:55;100467.91;;;22.20;48.31
47154;BME280;32907;41.412;2.164;2023-04-26T02:11:23;100486.81;;;22.30;48.16
47154;BME280;32907;41.412;2.164;2023-04-26T02:13:53;100466.78;;;22.21;47.95
47154;BME280;32907;41.412;2.164;2023-04-26T02:16:21;100488.81;;;22.38;47.93
47154;BME280;32907;41.412;2.164;2023-04-26T02:18:49;100483.47;;;22.33;48.00
47154;BME280;32907;41.412;2.164;2023-04-26T02:21:18;100490.44;;;22.39;47.72
47154;BME280;32907;41.412;2.164;2023-04-26T02:23:46;100490.72;;;22.38;47.82
47154;BME280;32907;41.412;2.164;2023-04-26T02:26:14;100467.31;;;22.23;47.68
47154;BME280;32907;41.412;2.164;2023-04-26T02:28:42;100484.28;;;22.33;47.83
47154;BME280;32907;41.412;2.164;2023-04-26T02:31:10;100477.19;;;22.32;47.40
47154;BME280;32907;41.412;2.164;2023-04-26T02:33:38;100450.63;;;22.11;47.86
47154;BME280;32907;41.412;2.164;2023-04-26T02:36:06;100481.38;;;22.30;47.75
47154;BME280;32907;41.412;2.164;2023-04-26T02:38:35;100427.38;;;21.99;47.50
47154;BME280;32907;41.412;2.164;2023-04-26T02:41:04;100441.31;;;22.12;47.79
47154;BME280;32907;41.412;2.164;2023-04-26T02:43:33;100467.41;;;22.31;47.33
47154;BME280;32907;41.412;2.164;2023-04-26T02:46:01;100475.59;;;22.31;47.54
47154;BME280;32907;41.412;2.164;2023-04-26T02:48:30;100468.50;;;22.30;47.77
47154;BME280;32907;41.412;2.164;2023-04-26T02:50:58;100438.59;;;22.12;47.92
47154;BME280;32907;41.412;2.164;2023-04-26T02:53:29;100440.09;;;22.04;47.96
47154;BME280;32907;41.412;2.164;2023-04-26T02:55:58;100472.06;;;22.31;47.79
47154;BME280;32907;41.412;2.164;2023-04-26T02:58:28;100431.84;;;21.95;47.97
47154;BME280;32907;41.412;2.164;2023-04-26T03:00:56;100486.81;;;22.30;47.89
47154;BME280;32907;41.412;2.164;2023-04-26T03:03:28;100444.75;;;22.03;47.93
47154;BME280;32907;41.412;2.164;2023-04-26T03:05:57;100473.91;;;22.22;48.22
47154;BME280;32907;41.412;2.164;2023-04-26T03:08:25;100461.06;;;22.09;48.08
47154;BME280;32907;41.412;2.164;2023-04-26T03:10:53;100448.59;;;22.02;48.20
47154;BME280;32907;41.412;2.164;2023-04-26T03:13:24;100469.66;;;22.16;48.17
47154;BME280;32907;41.412;2.164;2023-04-26T03:15:54;100487.81;;;22.34;48.44
47154;BME280;32907;41.412;2.164;2023-04-26T03:18:22;100415.88;;;21.89;48.08
47154;BME280;32907;41.412;2.164;2023-04-26T03:20:51;100429.00;;;22.00;47.99
47154;BME280;32907;41.412;2.164;2023-04-26T03:23:19;100446.19;;;22.15;48.14
47154;BME280;32907;41.412;2.164;2023-04-26T03:25:51;100426.13;;;22.05;47.96
47154;BME280;32907;41.412;2.164;2023-04-26T03:28:19;100473.34;;;22.33;48.05
47154;BME280;32907;41.412;2.164;2023-04-26T03:30:47;100463.34;;;22.29;48.26
47154;BME280;32907;41.412;2.164;2023-04-26T03:33:17;100424.53;;;22.04;47.84
47154;BME280;32907;41.412;2.164;2023-04-26T03:35:44;100472.06;;;22.31;47.77
47154;BME280;32907;41.412;2.164;2023-04-26T03:38:14;100465.78;;;22.30;47.60
47154;BME280;32907;41.412;2.164;2023-04-26T03:40:42;100461.13;;;22.31;47.67
47154;BME280;32907;41.412;2.164;2023-04-26T03:43:10;100454.66;;;22.27;47.81
47154;BME280;32907;41.412;2.164;2023-04-26T03:45:38;100465.25;;;22.28;47.60
47154;BME280;32907;41.412;2.164;2023-04-26T03:48:06;100454.66;;;22.27;47.76
47154;BME280;32907;41.412;2.164;2023-04-26T03:50:34;100421.31;;;22.02;47.79
47154;BME280;32907;41.412;2.164;2023-04-26T03:53:03;100438.00;;;22.15;47.92
47154;BME280;32907;41.412;2.164;2023-04-26T03:55:31;100416.25;;;21.96;47.58
47154;BME280;32907;41.412;2.164;2023-04-26T03:57:59;100417.69;;;21.93;47.43
47154;BME280;32907;41.412;2.164;2023-04-26T04:00:27;100460.34;;;22.17;47.92
47154;BME280;32907;41.412;2.164;2023-04-26T04:02:55;100453.28;;;22.16;48.00
47154;BME280;32907;41.412;2.164;2023-04-26T04:05:24;100472.16;;;22.26;48.37
47154;BME280;32907;41.412;2.164;2023-04-26T04:07:53;100446.88;;;22.06;48.53
47154;BME280;32907;41.412;2.164;2023-04-26T04:10:21;100430.91;;;22.00;48.21
47154;BME280;32907;41.412;2.164;2023-04-26T04:12:50;100472.06;;;22.31;48.29
47154;BME280;32907;41.412;2.164;2023-04-26T04:15:19;100482.16;;;22.30;48.69
47154;BME280;32907;41.412;2.164;2023-04-26T04:17:48;100454.19;;;22.11;49.10
47154;BME280;32907;41.412;2.164;2023-04-26T04:20:16;100449.63;;;22.06;48.53
47154;BME280;32907;41.412;2.164;2023-04-26T04:22:44;100485.41;;;22.32;48.34
47154;BME280;32907;41.412;2.164;2023-04-26T04:25:12;100458.53;;;22.12;48.93
47154;BME280;32907;41.412;2.164;2023-04-26T04:27:41;100443.16;;;22.02;48.50
47154;BME280;32907;41.412;2.164;2023-04-26T04:30:10;100481.84;;;22.32;48.68
47154;BME280;32907;41.412;2.164;2023-04-26T04:32:40;100483.97;;;22.35;49.19
47154;BME280;32907;41.412;2.164;2023-04-26T04:35:15;100471.03;;;22.27;48.71
47154;BME280;32907;41.412;2.164;2023-04-26T04:37:43;100458.09;;;22.19;48.19
47154;BME280;32907;41.412;2.164;2023-04-26T04:40:12;100477.50;;;22.31;48.38
47154;BME280;32907;41.412;2.164;2023-04-26T04:42:43;100440.34;;;22.08;48.17
47154;BME280;32907;41.412;2.164;2023-04-26T04:45:14;100475.91;;;22.30;47.70
47154;BME280;32907;41.412;2.164;2023-04-26T04:47:43;100474.50;;;22.19;47.69
47154;BME280;32907;41.412;2.164;2023-04-26T04:50:12;100482.59;;;22.24;47.68
47154;BME280;32907;41.412;2.164;2023-04-26T04:52:41;100474.81;;;22.17;48.09
47154;BME280;32907;41.412;2.164;2023-04-26T04:55:10;100460.81;;;22.05;48.21
47154;BME280;32907;41.412;2.164;2023-04-26T04:57:39;100445.38;;;22.00;48.24
47154;BME280;32907;41.412;2.164;2023-04-26T05:00:10;100483.00;;;22.17;48.47
47154;BME280;32907;41.412;2.164;2023-04-26T05:02:53;100497.53;;;22.26;48.69
47154;BME280;32907;41.412;2.164;2023-04-26T05:05:21;100504.63;;;22.27;48.28
47154;BME280;32907;41.412;2.164;2023-04-26T05:07:49;100506.22;;;22.28;48.53
47154;BME280;32907;41.412;2.164;2023-04-26T05:10:17;100507.84;;;22.29;48.37
47154;BME280;32907;41.412;2.164;2023-04-26T05:12:45;100487.97;;;22.15;48.47
47154;BME280;32907;41.412;2.164;2023-04-26T05:15:13;100492.09;;;22.13;48.57
47154;BME280;32907;41.412;2.164;2023-04-26T05:17:41;100495.13;;;22.11;48.71
47154;BME280;32907;41.412;2.164;2023-04-26T05:20:21;100512.72;;;22.19;48.86
47154;BME280;32907;41.412;2.164;2023-04-26T05:22:50;100502.84;;;22.09;49.12
47154;BME280;32907;41.412;2.164;2023-04-26T05:25:18;100498.09;;;22.15;48.87
47154;BME280;32907;41.412;2.164;2023-04-26T05:27:52;100519.88;;;22.28;48.82
47154;BME280;32907;41.412;2.164;2023-04-26T05:30:38;100526.56;;;22.36;48.91
47154;BME280;32907;41.412;2.164;2023-04-26T05:33:27;100539.63;;;22.39;49.26
47154;BME280;32907;41.412;2.164;2023-04-26T05:36:06;100473.69;;;22.04;49.69
47154;BME280;32907;41.412;2.164;2023-04-26T05:38:41;100490.69;;;22.15;49.68
47154;BME280;32907;41.412;2.164;2023-04-26T05:41:08;100546.78;;;22.49;49.28
47154;BME280;32907;41.412;2.164;2023-04-26T05:43:37;100531.91;;;22.41;49.35
47154;BME280;32907;41.412;2.164;2023-04-26T05:46:05;100534.97;;;22.40;49.54
47154;BME280;32907;41.412;2.164;2023-04-26T05:48:33;100553.69;;;22.46;49.63
47154;BME280;32907;41.412;2.164;2023-04-26T05:51:01;100525.88;;;22.30;49.40
47154;BME280;32907;41.412;2.164;2023-04-26T05:53:29;100560.44;;;22.49;49.30
47154;BME280;32907;41.412;2.164;2023-04-26T05:55:57;100519.72;;;22.25;49.60
47154;BME280;32907;41.412;2.164;2023-04-26T05:58:25;100505.97;;;22.16;49.27
47154;BME280;32907;41.412;2.164;2023-04-26T06:00:54;100535.69;;;22.31;49.33
47154;BME280;32907;41.412;2.164;2023-04-26T06:03:24;100567.53;;;22.50;49.40
47154;BME280;32907;41.412;2.164;2023-04-26T06:05:53;100539.81;;;22.29;49.29
47154;BME280;32907;41.412;2.164;2023-04-26T06:08:23;100574.41;;;22.47;49.50
47154;BME280;32907;41.412;2.164;2023-04-26T06:10:53;100536.19;;;22.20;49.66
47154;BME280;32907;41.412;2.164;2023-04-26T06:13:21;100549.13;;;22.28;49.65
47154;BME280;32907;41.412;2.164;2023-04-26T06:15:53;100538.63;;;22.21;49.59
47154;BME280;32907;41.412;2.164;2023-04-26T06:18:21;100563.81;;;22.32;49.91
47154;BME280;32907;41.412;2.164;2023-04-26T06:20:50;100579.28;;;22.37;49.88
47154;BME280;32907;41.412;2.164;2023-04-26T06:23:17;100583.50;;;22.43;50.00
47154;BME280;32907;41.412;2.164;2023-04-26T06:25:46;100540.66;;;22.16;49.76
47154;BME280;32907;41.412;2.164;2023-04-26T06:28:15;100590.59;;;22.44;49.75
47154;BME280;32907;41.412;2.164;2023-04-26T06:30:43;100560.59;;;22.30;49.87
47154;BME280;32907;41.412;2.164;2023-04-26T06:33:11;100556.34;;;22.24;49.75
47154;BME280;32907;41.412;2.164;2023-04-26T06:35:40;100561.88;;;22.32;49.93
47154;BME280;32907;41.412;2.164;2023-04-26T06:38:09;100569.78;;;22.34;49.91
47154;BME280;32907;41.412;2.164;2023-04-26T06:40:39;100571.28;;;22.40;49.67
47154;BME280;32907;41.412;2.164;2023-04-26T06:43:08;100497.03;;;21.97;49.51
47154;BME280;32907;41.412;2.164;2023-04-26T06:46:04;100581.69;;;22.52;49.33
47154;BME280;32907;41.412;2.164;2023-04-26T06:48:33;100559.03;;;22.38;49.27
47154;BME280;32907;41.412;2.164;2023-04-26T06:51:06;100586.03;;;22.53;49.15
47154;BME280;32907;41.412;2.164;2023-04-26T06:53:35;100596.84;;;22.58;49.22
47154;BME280;32907;41.412;2.164;2023-04-26T06:56:03;100599.28;;;22.59;49.26
47154;BME280;32907;41.412;2.164;2023-04-26T06:58:31;100589.56;;;22.53;49.40
47154;BME280;32907;41.412;2.164;2023-04-26T07:00:59;100593.81;;;22.59;49.19
47154;BME280;32907;41.412;2.164;2023-04-26T07:03:27;100554.50;;;22.33;49.45
47154;BME280;32907;41.412;2.164;2023-04-26T07:05:55;100574.69;;;22.46;49.28
47154;BME280;32907;41.412;2.164;2023-04-26T07:08:23;100592.50;;;22.57;49.03
47154;BME280;32907;41.412;2.164;2023-04-26T07:10:51;100545.81;;;22.31;49.44
47154;BME280;32907;41.412;2.164;2023-04-26T07:13:19;100559.56;;;22.40;49.59
47154;BME280;32907;41.412;2.164;2023-04-26T07:15:47;100566.31;;;22.42;49.56
47154;BME280;32907;41.412;2.164;2023-04-26T07:18:15;100575.22;;;22.48;49.32
47154;BME280;32907;41.412;2.164;2023-04-26T07:20:43;100597.34;;;22.60;49.45
47154;BME280;32907;41.412;2.164;2023-04-26T07:23:12;100609.63;;;22.63;49.59
47154;BME280;32907;41.412;2.164;2023-04-26T07:25:40;100545.81;;;22.31;49.50
47154;BME280;32907;41.412;2.164;2023-04-26T07:28:07;100596.75;;;22.63;49.31
47154;BME280;32907;41.412;2.164;2023-04-26T07:30:35;100595.31;;;22.66;49.03
47154;BME280;32907;41.412;2.164;2023-04-26T07:33:03;100592.59;;;22.66;48.89
47154;BME280;32907;41.412;2.164;2023-04-26T07:35:31;100561.34;;;22.44;48.79
47154;BME280;32907;41.412;2.164;2023-04-26T07:38:01;100585.13;;;22.57;49.14
47154;BME280;32907;41.412;2.164;2023-04-26T07:40:29;100598.28;;;22.55;48.86
47154;BME280;32907;41.412;2.164;2023-04-26T07:42:57;100594.63;;;22.60;48.91
47154;BME280;32907;41.412;2.164;2023-04-26T07:45:25;100531.53;;;22.20;49.06
47154;BME280;32907;41.412;2.164;2023-04-26T07:47:53;100564.69;;;22.41;49.11
47154;BME280;32907;41.412;2.164;2023-04-26T07:50:21;100595.25;;;22.57;49.28
47154;BME280;32907;41.412;2.164;2023-04-26T07:52:49;100563.19;;;22.35;49.38
47154;BME280;32907;41.412;2.164;2023-04-26T07:55:17;100616.69;;;22.64;49.18
47154;BME280;32907;41.412;2.164;2023-04-26T07:57:45;100585.84;;;22.49;49.35
47154;BME280;32907;41.412;2.164;2023-04-26T08:00:17;100517.78;;;22.12;49.04
47154;BME280;32907;41.412;2.164;2023-04-26T08:02:46;100466.25;;;21.69;48.74
47154;BME280;32907;41.412;2.164;2023-04-26T08:05:15;100501.41;;;21.98;48.84
47154;BME280;32907;41.412;2.164;2023-04-26T08:07:43;100598.69;;;22.63;49.04
47154;BME280;32907;41.412;2.164;2023-04-26T08:10:11;100471.97;;;21.81;48.92
47154;BME280;32907;41.412;2.164;2023-04-26T08:12:39;100407.63;;;21.39;49.18
47154;BME280;32907;41.412;2.164;2023-04-26T08:15:07;100588.34;;;22.46;49.43
47154;BME280;32907;41.412;2.164;2023-04-26T08:17:37;100599.50;;;22.63;49.43
47154;BME280;32907;41.412;2.164;2023-04-26T08:20:05;100586.47;;;22.46;49.31
47154;BME280;32907;41.412;2.164;2023-04-26T08:22:33;100598.28;;;22.55;49.07
47154;BME280;32907;41.412;2.164;2023-04-26T08:25:01;100603.13;;;22.58;49.27
47154;BME280;32907;41.412;2.164;2023-04-26T08:27:31;100597.66;;;22.58;48.93
47154;BME280;32907;41.412;2.164;2023-04-26T08:30:00;100615.16;;;22.71;49.08
47154;BME280;32907;41.412;2.164;2023-04-26T08:32:29;100626.91;;;22.72;49.30
47154;BME280;32907;41.412;2.164;2023-04-26T08:34:57;100625.47;;;22.74;49.40
47154;BME280;32907;41.412;2.164;2023-04-26T08:37:25;100632.88;;;22.74;49.17
47154;BME280;32907;41.412;2.164;2023-04-26T08:39:55;100607.88;;;22.67;49.51
47154;BME280;32907;41.412;2.164;2023-04-26T08:42:26;100623.06;;;22.73;49.55
47154;BME280;32907;41.412;2.164;2023-04-26T08:44:54;100566.72;;;22.36;49.62
47154;BME280;32907;41.412;2.164;2023-04-26T08:47:43;100632.25;;;22.77;49.22
47154;BME280;32907;41.412;2.164;2023-04-26T08:50:20;100628.81;;;22.71;49.25
47154;BME280;32907;41.412;2.164;2023-04-26T08:52:51;100602.13;;;22.54;51.00
47154;BME280;32907;41.412;2.164;2023-04-26T08:55:19;100569.78;;;22.34;50.27
47154;BME280;32907;41.412;2.164;2023-04-26T08:57:49;100587.56;;;22.45;49.90
47154;BME280;32907;41.412;2.164;2023-04-26T09:00:22;100644.38;;;22.84;50.24
47154;BME280;32907;41.412;2.164;2023-04-26T09:02:51;100621.44;;;22.72;50.28
47154;BME280;32907;41.412;2.164;2023-04-26T09:05:20;100627.28;;;22.79;50.08
47154;BME280;32907;41.412;2.164;2023-04-26T09:07:55;100623.75;;;22.78;50.09
47154;BME280;32907;41.412;2.164;2023-04-26T09:10:29;100622.91;;;22.78;49.99
47154;BME280;32907;41.412;2.164;2023-04-26T09:12:58;100593.00;;;22.59;49.14
47154;BME280;32907;41.412;2.164;2023-04-26T09:15:26;100607.38;;;22.65;49.76
47154;BME280;32907;41.412;2.164;2023-04-26T09:17:54;100606.88;;;22.63;49.94
47154;BME280;32907;41.412;2.164;2023-04-26T09:20:28;100592.28;;;22.53;49.23
47154;BME280;32907;41.412;2.164;2023-04-26T09:25:30;100469.06;;;21.77;49.21
47154;BME280;32907;41.412;2.164;2023-04-26T09:28:01;100589.47;;;22.45;49.41
47154;BME280;32907;41.412;2.164;2023-04-26T09:30:37;100662.72;;;22.98;49.04
47154;BME280;32907;41.412;2.164;2023-04-26T09:33:06;100549.75;;;22.25;49.10
47154;BME280;32907;41.412;2.164;2023-04-26T09:35:37;100551.19;;;22.22;48.85
47154;BME280;32907;41.412;2.164;2023-04-26T09:38:16;100666.88;;;22.95;49.38
47154;BME280;32907;41.412;2.164;2023-04-26T09:40:46;100618.09;;;22.61;49.66
47154;BME280;32907;41.412;2.164;2023-04-26T09:43:19;100622.97;;;22.64;49.23
47154;BME280;32907;41.412;2.164;2023-04-26T09:48:22;100678.09;;;22.94;49.80
47154;BME280;32907;41.412;2.164;2023-04-26T09:50:54;100677.28;;;22.93;49.58
47154;BME280;32907;41.412;2.164;2023-04-26T09:53:32;100680.03;;;22.93;49.91
47154;BME280;32907;41.412;2.164;2023-04-26T09:56:18;100653.50;;;22.80;49.89
47154;BME280;32907;41.412;2.164;2023-04-26T10:01:15;100657.38;;;22.79;50.25
47154;BME280;32907;41.412;2.164;2023-04-26T10:03:45;100637.34;;;22.56;50.49
47154;BME280;32907;41.412;2.164;2023-04-26T10:06:15;100583.16;;;22.22;50.90
47154;BME280;32907;41.412;2.164;2023-04-26T10:08:44;100650.88;;;22.61;50.70
47154;BME280;32907;41.412;2.164;2023-04-26T10:11:12;100690.78;;;22.76;50.97
47154;BME280;32907;41.412;2.164;2023-04-26T10:13:41;100681.34;;;22.68;50.96
47154;BME280;32907;41.412;2.164;2023-04-26T10:16:09;100689.25;;;22.70;51.33
47154;BME280;32907;41.412;2.164;2023-04-26T10:18:37;100699.69;;;22.68;51.09
47154;BME280;32907;41.412;2.164;2023-04-26T10:21:09;100707.06;;;22.67;51.62
47154;BME280;32907;41.412;2.164;2023-04-26T10:23:42;100693.22;;;22.64;51.45
47154;BME280;32907;41.412;2.164;2023-04-26T10:26:52;100680.78;;;22.57;51.93
47154;BME280;32907;41.412;2.164;2023-04-26T10:29:25;100690.91;;;22.57;51.76
47154;BME280;32907;41.412;2.164;2023-04-26T10:34:34;100695.44;;;22.61;51.99
47154;BME280;32907;41.412;2.164;2023-04-26T10:37:14;100681.25;;;22.59;51.96
47154;BME280;32907;41.412;2.164;2023-04-26T10:39:44;100666.69;;;22.50;52.24
47154;BME280;32907;41.412;2.164;2023-04-26T10:44:58;100661.44;;;22.40;52.07
47154;BME280;32907;41.412;2.164;2023-04-26T10:47:35;100661.44;;;22.40;52.18
47154;BME280;32907;41.412;2.164;2023-04-26T10:50:08;100673.28;;;22.49;52.46
47154;BME280;32907;41.412;2.164;2023-04-26T10:53:03;100666.28;;;22.43;52.50
47154;BME280;32907;41.412;2.164;2023-04-26T10:55:37;100647.38;;;22.33;52.35
47154;BME280;32907;41.412;2.164;2023-04-26T10:58:28;100682.38;;;22.58;52.15
47154;BME280;32907;41.412;2.164;2023-04-26T11:03:31;100660.81;;;22.43;51.82
47154;BME280;32907;41.412;2.164;2023-04-26T11:05:59;100652.22;;;22.36;51.67
47154;BME280;32907;41.412;2.164;2023-04-26T11:08:29;100649.91;;;22.43;51.65
47154;BME280;32907;41.412;2.164;2023-04-26T11:13:40;100665.38;;;22.61;51.92
47154;BME280;32907;41.412;2.164;2023-04-26T11:16:10;100620.56;;;22.35;51.69
47154;BME280;32907;41.412;2.164;2023-04-26T11:18:40;100655.75;;;22.64;51.74
47154;BME280;32907;41.412;2.164;2023-04-26T11:21:09;100595.97;;;22.21;51.65
47154;BME280;32907;41.412;2.164;2023-04-26T11:23:38;100625.00;;;22.45;51.85
47154;BME280;32907;41.412;2.164;2023-04-26T11:26:07;100652.91;;;22.69;51.34
47154;BME280;32907;41.412;2.164;2023-04-26T11:28:37;100648.97;;;22.61;51.27
47154;BME280;32907;41.412;2.164;2023-04-26T11:31:06;100619.63;;;22.53;51.30
47154;BME280;32907;41.412;2.164;2023-04-26T11:33:34;100654.72;;;22.74;51.25
47154;BME280;32907;41.412;2.164;2023-04-26T11:36:02;100639.88;;;22.66;51.10
47154;BME280;32907;41.412;2.164;2023-04-26T11:38:30;100624.81;;;22.55;51.07
47154;BME280;32907;41.412;2.164;2023-04-26T11:40:59;100657.16;;;22.75;51.49
47154;BME280;32907;41.412;2.164;2023-04-26T11:46:00;100639.94;;;22.75;51.49
47154;BME280;32907;41.412;2.164;2023-04-26T11:48:29;100629.00;;;22.75;51.60
47154;BME280;32907;41.412;2.164;2023-04-26T11:51:02;100628.44;;;22.64;51.70
47154;BME280;32907;41.412;2.164;2023-04-26T11:53:40;100614.16;;;22.53;52.30
47154;BME280;32907;41.412;2.164;2023-04-26T11:56:19;100630.75;;;22.71;52.39
47154;BME280;32907;41.412;2.164;2023-04-26T11:58:50;100607.97;;;22.61;52.24
47154;BME280;32907;41.412;2.164;2023-04-26T12:01:23;100602.13;;;22.54;52.09
47154;BME280;32907;41.412;2.164;2023-04-26T12:03:53;100584.44;;;22.38;52.01
47154;BME280;32907;41.412;2.164;2023-04-26T12:06:30;100610.63;;;22.53;52.21
47154;BME280;32907;41.412;2.164;2023-04-26T12:09:02;100629.25;;;22.65;52.52
47154;BME280;32907;41.412;2.164;2023-04-26T12:11:32;100624.28;;;22.67;51.98
47154;BME280;32907;41.412;2.164;2023-04-26T12:14:00;100610.41;;;22.63;52.34
47154;BME280;32907;41.412;2.164;2023-04-26T12:16:28;100610.59;;;22.67;52.18
47154;BME280;32907;41.412;2.164;2023-04-26T12:18:57;100612.44;;;22.71;52.18
47154;BME280;32907;41.412;2.164;2023-04-26T12:21:24;100609.69;;;22.71;52.13
47154;BME280;32907;41.412;2.164;2023-04-26T12:23:56;100614.84;;;22.73;51.92
47154;BME280;32907;41.412;2.164;2023-04-26T12:26:45;100596.94;;;22.67;51.91
47154;BME280;32907;41.412;2.164;2023-04-26T12:29:13;100592.19;;;22.58;52.11
47154;BME280;32907;41.412;2.164;2023-04-26T12:31:41;100623.53;;;22.75;52.01
47154;BME280;32907;41.412;2.164;2023-04-26T12:34:09;100596.53;;;22.59;52.00
47154;BME280;32907;41.412;2.164;2023-04-26T12:36:43;100576.03;;;22.48;51.84
47154;BME280;32907;41.412;2.164;2023-04-26T12:39:14;100615.16;;;22.71;51.64
47154;BME280;32907;41.412;2.164;2023-04-26T12:41:43;100586.84;;;22.53;51.78
47154;BME280;32907;41.412;2.164;2023-04-26T12:44:12;100592.50;;;22.57;51.68
47154;BME280;32907;41.412;2.164;2023-04-26T12:46:42;100592.41;;;22.62;51.46
47154;BME280;32907;41.412;2.164;2023-04-26T12:49:10;100601.91;;;22.65;51.71
47154;BME280;32907;41.412;2.164;2023-04-26T12:51:38;100583.00;;;22.54;51.94
47154;BME280;32907;41.412;2.164;2023-04-26T12:54:06;100561.47;;;22.39;51.98
47154;BME280;32907;41.412;2.164;2023-04-26T12:56:34;100614.44;;;22.66;51.59
47154;BME280;32907;41.412;2.164;2023-04-26T12:59:04;100571.69;;;22.47;51.76
47154;BME280;32907;41.412;2.164;2023-04-26T13:01:33;100588.75;;;22.53;51.99
47154;BME280;32907;41.412;2.164;2023-04-26T13:04:00;100581.50;;;22.48;51.81
47154;BME280;32907;41.412;2.164;2023-04-26T13:06:31;100599.91;;;22.56;51.76
47154;BME280;32907;41.412;2.164;2023-04-26T13:08:59;100614.56;;;22.60;51.95
47154;BME280;32907;41.412;2.164;2023-04-26T13:11:28;100574.63;;;22.37;51.76
47154;BME280;32907;41.412;2.164;2023-04-26T13:13:56;100604.75;;;22.59;51.64
47154;BME280;32907;41.412;2.164;2023-04-26T13:16:23;100603.94;;;22.59;51.80
47154;BME280;32907;41.412;2.164;2023-04-26T13:18:51;100593.94;;;22.54;51.84
47154;BME280;32907;41.412;2.164;2023-04-26T13:21:19;100600.09;;;22.60;51.52
47154;BME280;32907;41.412;2.164;2023-04-26T13:23:47;100577.66;;;22.49;51.56
47154;BME280;32907;41.412;2.164;2023-04-26T13:26:15;100576.63;;;22.45;51.88